createdAt,value
2019-06-01T00:01:54.370Z,15.75
2019-06-01T00:03:56.969Z,15.78
2019-06-01T00:05:58.607Z,15.67
2019-06-01T00:08:00.823Z,15.74
2019-06-01T00:10:04.626Z,15.70
2019-06-01T00:12:06.881Z,15.73
2019-06-01T00:14:09.167Z,15.73
2019-06-01T00:16:11.518Z,15.69
2019-06-01T00:18:13.532Z,15.68
2019-06-01T00:20:16.879Z,15.63
2019-06-01T00:22:19.320Z,15.64
2019-06-01T00:24:20.952Z,15.60
2019-06-01T00:26:23.168Z,15.61
2019-06-01T00:28:25.632Z,15.61
2019-06-01T00:30:28.069Z,15.64
2019-06-01T00:32:30.027Z,15.65
2019-06-01T00:34:32.313Z,15.63
2019-06-01T00:36:34.388Z,15.64
2019-06-01T00:38:36.573Z,15.61
2019-06-01T00:40:38.854Z,15.58
2019-06-01T00:42:41.946Z,15.60
2019-06-01T00:44:44.341Z,15.60
2019-06-01T00:46:46.747Z,15.61
2019-06-01T00:48:49.989Z,15.63
2019-06-01T00:50:53.219Z,15.61
2019-06-01T00:52:55.690Z,15.57
2019-06-01T00:54:57.684Z,15.62
2019-06-01T00:56:59.696Z,15.59
2019-06-01T00:59:01.985Z,15.57
2019-06-01T01:01:03.992Z,15.50
2019-06-01T01:03:06.086Z,15.49
2019-06-01T01:05:13.579Z,15.50
2019-06-01T01:07:15.595Z,15.48
2019-06-01T01:09:19.411Z,15.49
2019-06-01T01:11:22.144Z,15.46
2019-06-01T01:13:25.601Z,15.46
2019-06-01T01:15:27.643Z,15.46
2019-06-01T01:17:31.103Z,15.48
2019-06-01T01:19:33.123Z,15.53
2019-06-01T01:21:35.192Z,15.52
2019-06-01T01:23:37.518Z,15.47
2019-06-01T01:25:39.537Z,15.42
2019-06-01T01:27:41.560Z,15.38
2019-06-01T01:29:43.668Z,15.37
2019-06-01T01:31:47.013Z,15.40
2019-06-01T01:33:49.621Z,15.39
2019-06-01T01:35:52.608Z,15.37
2019-06-01T01:37:56.587Z,15.33
2019-06-01T01:39:59.821Z,15.36
2019-06-01T01:42:02.189Z,15.36
2019-06-01T01:44:04.306Z,15.32
2019-06-01T01:46:06.286Z,15.28
2019-06-01T01:48:08.775Z,15.33
2019-06-01T01:50:11.284Z,15.29
2019-06-01T01:52:12.971Z,15.30
2019-06-01T01:54:15.276Z,15.25
2019-06-01T01:56:17.316Z,15.25
2019-06-01T01:58:19.396Z,15.26
2019-06-01T02:00:43.782Z,15.29
2019-06-01T02:02:45.796Z,15.27
2019-06-01T02:04:48.052Z,15.24
2019-06-01T02:06:50.279Z,15.20
2019-06-01T02:08:53.481Z,15.16
2019-06-01T02:10:57.381Z,15.17
2019-06-01T02:13:00.071Z,15.19
2019-06-01T02:15:02.313Z,15.22
2019-06-01T02:17:04.735Z,15.22
2019-06-01T02:19:06.965Z,15.19
2019-06-01T02:21:09.029Z,15.15
2019-06-01T02:23:11.356Z,15.14
2019-06-01T02:25:13.862Z,15.09
2019-06-01T02:27:15.785Z,15.11
2019-06-01T02:29:17.818Z,15.11
2019-06-01T02:31:37.491Z,15.05
2019-06-01T02:33:24.159Z,15.06
2019-06-01T02:35:26.389Z,14.95
2019-06-01T02:37:28.878Z,14.92
2019-06-01T02:39:30.569Z,14.91
2019-06-01T02:41:32.528Z,14.91
2019-06-01T02:43:34.980Z,14.87
2019-06-01T02:45:37.878Z,14.85
2019-06-01T02:47:40.358Z,14.84
2019-06-01T02:49:42.356Z,14.79
2019-06-01T02:51:44.538Z,14.81
2019-06-01T02:53:46.840Z,14.78
2019-06-01T02:55:49.283Z,14.80
2019-06-01T02:57:51.115Z,14.77
2019-06-01T02:59:53.517Z,14.73
2019-06-01T03:02:00.233Z,14.70
2019-06-01T03:04:03.347Z,14.71
2019-06-01T03:06:07.664Z,14.70
2019-06-01T03:08:11.023Z,14.71
2019-06-01T03:10:13.227Z,14.73
2019-06-01T03:12:18.290Z,14.77
2019-06-01T03:14:23.594Z,14.74
2019-06-01T03:16:30.450Z,14.72
2019-06-01T03:18:35.977Z,14.69
2019-06-01T03:20:39.906Z,14.67
2019-06-01T03:22:42.059Z,14.68
2019-06-01T03:24:47.169Z,14.64
2019-06-01T03:26:51.144Z,14.63
2019-06-01T03:28:53.638Z,14.64
2019-06-01T03:30:55.392Z,14.67
2019-06-01T03:32:57.742Z,14.73
2019-06-01T03:35:00.546Z,14.80
2019-06-01T03:37:02.999Z,14.84
2019-06-01T03:39:06.148Z,14.84
2019-06-01T03:41:08.300Z,14.84
2019-06-01T03:43:12.716Z,14.85
2019-06-01T03:45:15.028Z,14.88
2019-06-01T03:47:17.070Z,14.91
2019-06-01T03:49:19.207Z,15.02
2019-06-01T03:51:21.417Z,15.06
2019-06-01T03:53:23.575Z,15.03
2019-06-01T03:55:25.616Z,15.02
2019-06-01T03:57:28.113Z,15.05
2019-06-01T03:59:29.984Z,15.01
2019-06-01T04:01:32.212Z,15.10
2019-06-01T04:03:34.504Z,15.05
2019-06-01T04:05:36.514Z,15.10
2019-06-01T04:07:39.157Z,15.12
2019-06-01T04:09:41.419Z,15.15
2019-06-01T04:11:44.513Z,15.19
2019-06-01T04:13:46.994Z,15.24
2019-06-01T04:15:49.234Z,15.29
2019-06-01T04:17:51.331Z,15.29
2019-06-01T04:19:54.069Z,15.30
2019-06-01T04:21:56.645Z,15.38
2019-06-01T04:23:58.236Z,15.32
2019-06-01T04:26:00.374Z,15.33
2019-06-01T04:28:04.464Z,15.33
2019-06-01T04:30:07.237Z,15.35
2019-06-01T04:32:10.751Z,15.34
2019-06-01T04:34:13.207Z,15.38
2019-06-01T04:36:15.261Z,15.36
2019-06-01T04:38:17.316Z,15.37
2019-06-01T04:40:19.620Z,15.38
2019-06-01T04:42:21.666Z,15.39
2019-06-01T04:44:25.398Z,15.43
2019-06-01T04:46:27.736Z,15.43
2019-06-01T04:48:29.771Z,15.47
2019-06-01T04:50:32.263Z,15.52
2019-06-01T04:52:34.946Z,15.52
2019-06-01T04:54:37.397Z,15.54
2019-06-01T04:56:40.421Z,15.61
2019-06-01T04:58:43.077Z,15.72
2019-06-01T05:00:45.090Z,15.76
2019-06-01T05:02:47.102Z,15.76
2019-06-01T05:04:49.417Z,15.77
2019-06-01T05:06:51.681Z,15.82
2019-06-01T05:08:53.716Z,15.84
2019-06-01T05:10:56.365Z,15.87
2019-06-01T05:12:58.923Z,15.91
2019-06-01T05:15:01.291Z,15.99
2019-06-01T05:17:05.767Z,15.94
2019-06-01T05:19:08.237Z,15.89
2019-06-01T05:21:10.582Z,15.94
2019-06-01T05:23:12.718Z,15.95
2019-06-01T05:25:15.372Z,15.98
2019-06-01T05:27:17.569Z,15.95
2019-06-01T05:29:19.956Z,16.05
2019-06-01T05:31:25.232Z,16.13
2019-06-01T05:33:36.877Z,16.17
2019-06-01T05:35:30.889Z,16.24
2019-06-01T05:37:32.721Z,16.35
2019-06-01T05:39:34.809Z,16.34
2019-06-01T05:41:37.085Z,16.43
2019-06-01T05:43:39.276Z,16.46
2019-06-01T05:45:41.629Z,16.47
2019-06-01T05:47:43.660Z,16.52
2019-06-01T05:49:46.051Z,16.62
2019-06-01T05:51:48.301Z,16.69
2019-06-01T05:53:50.942Z,16.77
2019-06-01T05:55:52.709Z,16.73
2019-06-01T05:57:55.011Z,16.86
2019-06-01T05:59:57.135Z,16.96
2019-06-01T06:01:59.329Z,17.08
2019-06-01T06:04:01.390Z,17.27
2019-06-01T07:29:34.392Z,19.21
2019-06-01T07:31:36.647Z,19.26
2019-06-01T07:33:38.693Z,19.22
2019-06-01T07:35:40.908Z,19.31
2019-06-01T07:37:42.996Z,19.43
2019-06-01T07:39:45.025Z,19.46
2019-06-01T07:41:47.243Z,19.46
2019-06-01T07:46:47.126Z,19.53
2019-06-01T07:48:49.381Z,19.74
2019-06-01T07:50:51.393Z,19.75
2019-06-01T07:52:53.616Z,19.90
2019-06-01T07:54:55.688Z,20.02
2019-06-01T07:56:57.810Z,19.83
2019-06-01T07:59:01.231Z,19.81
2019-06-01T08:01:03.536Z,19.83
2019-06-01T08:03:05.578Z,19.89
2019-06-01T08:05:09.077Z,19.97
2019-06-01T08:07:11.088Z,19.90
2019-06-01T08:09:13.109Z,19.86
2019-06-01T08:11:15.190Z,20.02
2019-06-01T08:13:17.166Z,20.28
2019-06-01T08:15:19.303Z,20.09
2019-06-01T08:17:22.015Z,20.41
2019-06-01T08:19:24.256Z,20.45
2019-06-01T08:21:26.342Z,20.38
2019-06-01T08:23:28.604Z,20.30
2019-06-01T08:25:30.861Z,20.39
2019-06-01T08:27:33.209Z,20.34
2019-06-01T08:29:35.453Z,20.65
2019-06-01T08:31:37.574Z,20.49
2019-06-01T08:33:40.089Z,20.89
2019-06-01T08:35:42.247Z,21.30
2019-06-01T08:37:44.286Z,21.64
2019-06-01T08:39:46.403Z,21.52
2019-06-01T08:41:48.985Z,21.66
2019-06-01T08:43:50.985Z,21.93
2019-06-01T08:45:53.381Z,21.68
2019-06-01T08:47:55.847Z,22.13
2019-06-01T08:49:57.760Z,22.34
2019-06-01T08:51:59.829Z,22.03
2019-06-01T08:54:01.894Z,22.34
2019-06-01T08:56:04.005Z,21.98
2019-06-01T08:58:06.097Z,22.16
2019-06-01T09:00:08.577Z,22.08
2019-06-01T09:02:10.315Z,22.22
2019-06-01T09:04:12.409Z,22.33
2019-06-01T09:06:14.924Z,22.50
2019-06-01T09:08:16.456Z,22.39
2019-06-01T09:10:18.657Z,22.31
2019-06-01T09:12:20.902Z,22.41
2019-06-01T09:14:22.960Z,22.48
2019-06-01T09:16:25.538Z,22.38
2019-06-01T09:18:27.958Z,22.48
2019-06-01T09:20:34.918Z,22.71
2019-06-01T09:22:35.816Z,22.56
2019-06-01T09:24:38.199Z,22.67
2019-06-01T09:26:40.427Z,22.95
2019-06-01T09:28:42.628Z,23.37
2019-06-01T09:30:44.720Z,23.42
2019-06-01T09:32:47.883Z,23.21
2019-06-01T09:34:49.905Z,23.28
2019-06-01T09:36:55.421Z,23.14
2019-06-01T09:38:56.086Z,23.19
2019-06-01T09:40:58.135Z,23.14
2019-06-01T09:43:00.516Z,23.43
2019-06-01T09:45:02.456Z,23.22
2019-06-01T09:47:04.700Z,23.09
2019-06-01T09:49:08.556Z,23.06
2019-06-01T09:51:10.560Z,22.98
2019-06-01T09:53:13.137Z,22.99
2019-06-01T09:55:15.559Z,22.87
2019-06-01T09:57:17.403Z,23.03
2019-06-01T09:59:20.568Z,22.91
2019-06-01T10:01:22.981Z,23.34
2019-06-01T10:03:24.982Z,23.26
2019-06-01T10:05:28.337Z,23.04
2019-06-01T10:07:30.967Z,22.95
2019-06-01T10:09:33.627Z,23.16
2019-06-01T10:11:36.067Z,23.30
2019-06-01T10:13:38.436Z,23.18
2019-06-01T10:15:40.624Z,23.28
2019-06-01T10:17:43.164Z,23.20
2019-06-01T10:19:45.302Z,23.09
2019-06-01T10:21:47.394Z,23.02
2019-06-01T10:23:50.046Z,23.17
2019-06-01T10:25:52.562Z,23.16
2019-06-01T10:27:54.633Z,23.30
2019-06-01T10:29:56.695Z,23.19
2019-06-01T10:31:59.035Z,23.37
2019-06-01T10:34:00.792Z,23.21
2019-06-01T10:36:19.031Z,23.41
2019-06-01T10:38:07.069Z,23.04
2019-06-01T10:40:09.419Z,23.14
2019-06-01T10:42:11.396Z,23.25
2019-06-01T10:44:13.555Z,23.38
2019-06-01T10:46:15.636Z,23.06
2019-06-01T10:48:17.694Z,23.26
2019-06-01T10:50:20.056Z,23.50
2019-06-01T10:52:21.602Z,23.39
2019-06-01T10:54:23.719Z,23.38
2019-06-01T10:56:27.870Z,23.15
2019-06-01T10:58:29.917Z,22.93
2019-06-01T11:00:39.818Z,23.02
2019-06-01T11:02:36.665Z,23.17
2019-06-01T11:04:38.991Z,22.96
2019-06-01T11:06:47.799Z,23.18
2019-06-01T11:08:45.583Z,23.33
2019-06-01T11:10:48.160Z,23.26
2019-06-01T11:12:50.263Z,23.38
2019-06-01T11:14:52.579Z,23.26
2019-06-01T11:16:56.530Z,22.91
2019-06-01T11:18:58.498Z,22.90
2019-06-01T11:21:00.716Z,22.80
2019-06-01T11:23:03.142Z,22.80
2019-06-01T11:25:05.569Z,22.92
2019-06-01T11:27:08.756Z,22.79
2019-06-01T11:29:10.956Z,22.50
2019-06-01T11:31:13.268Z,22.47
2019-06-01T11:33:15.315Z,22.57
2019-06-01T11:35:17.581Z,22.55
2019-06-01T11:37:19.804Z,22.64
2019-06-01T11:39:22.129Z,22.34
2019-06-01T11:41:24.336Z,22.47
2019-06-01T11:43:26.571Z,22.12
2019-06-01T11:45:28.837Z,22.29
2019-06-01T11:47:30.553Z,22.57
2019-06-01T11:49:34.696Z,22.77
2019-06-01T11:51:37.273Z,22.89
2019-06-01T11:53:39.976Z,22.64
2019-06-01T11:55:43.383Z,22.71
2019-06-01T11:57:46.057Z,22.67
2019-06-01T11:59:48.227Z,22.46
2019-06-01T12:01:50.664Z,22.60
2019-06-01T12:03:52.804Z,22.48
2019-06-01T12:05:54.809Z,22.56
2019-06-01T12:07:57.190Z,22.45
2019-06-01T12:09:59.414Z,22.57
2019-06-01T12:12:01.446Z,22.64
2019-06-01T12:14:03.750Z,22.75
2019-06-01T12:16:05.890Z,22.58
2019-06-01T12:18:07.980Z,22.47
2019-06-01T12:20:10.281Z,21.87
2019-06-01T12:22:13.528Z,22.09
2019-06-01T12:24:15.574Z,22.16
2019-06-01T12:26:17.772Z,22.11
2019-06-01T12:37:36.027Z,22.00
2019-06-01T12:39:24.404Z,22.05
2019-06-01T12:41:26.578Z,22.19
2019-06-01T12:43:28.723Z,22.46
2019-06-01T12:45:31.029Z,22.42
2019-06-01T12:47:33.162Z,22.44
2019-06-01T12:49:35.219Z,22.16
2019-06-01T12:51:37.567Z,22.04
2019-06-01T12:53:42.398Z,22.02
2019-06-01T12:55:45.241Z,21.80
2019-06-01T12:57:49.116Z,22.02
2019-06-01T12:59:51.529Z,22.04
2019-06-01T13:01:53.779Z,22.32
2019-06-01T13:03:57.026Z,22.35
2019-06-01T13:05:59.130Z,22.18
2019-06-01T13:08:03.000Z,22.41
2019-06-01T13:10:05.359Z,22.54
2019-06-01T13:12:07.790Z,22.27
2019-06-01T13:14:09.488Z,22.24
2019-06-01T13:16:11.761Z,22.66
2019-06-01T13:18:13.850Z,22.60
2019-06-01T13:20:15.881Z,22.50
2019-06-01T13:22:18.194Z,22.27
2019-06-01T13:24:20.162Z,22.30
2019-06-01T13:26:22.263Z,22.34
2019-06-01T13:28:37.711Z,22.25
2019-06-01T13:30:28.829Z,22.41
2019-06-01T13:32:30.944Z,22.55
2019-06-01T13:34:34.399Z,22.69
2019-06-01T13:36:36.585Z,22.54
2019-06-01T13:38:38.961Z,22.49
2019-06-01T13:40:42.927Z,22.48
2019-06-01T13:42:45.199Z,22.59
2019-06-01T13:44:47.446Z,22.35
2019-06-01T13:46:49.749Z,22.23
2019-06-01T13:48:52.748Z,22.33
2019-06-01T13:50:57.080Z,22.50
2019-06-01T13:52:59.195Z,22.37
2019-06-01T13:55:01.322Z,22.41
2019-06-01T13:57:03.550Z,22.46
2019-06-01T13:59:05.808Z,22.50
2019-06-01T14:01:07.817Z,22.26
2019-06-01T14:03:10.000Z,22.41
2019-06-01T14:05:12.301Z,22.18
2019-06-01T14:07:14.381Z,21.88
2019-06-01T14:09:21.528Z,21.45
2019-06-01T14:11:21.796Z,21.54
2019-06-01T14:13:23.896Z,21.72
2019-06-01T14:15:25.992Z,21.46
2019-06-01T14:17:28.467Z,21.27
2019-06-01T14:19:30.115Z,21.28
2019-06-01T14:21:33.499Z,21.37
2019-06-01T14:23:35.769Z,21.31
2019-06-01T14:25:37.849Z,21.41
2019-06-01T14:27:40.074Z,21.63
2019-06-01T14:29:42.098Z,21.94
2019-06-01T14:31:46.116Z,21.84
2019-06-01T14:33:48.644Z,22.10
2019-06-01T14:35:52.738Z,22.08
2019-06-01T14:37:55.237Z,22.02
2019-06-01T14:39:57.543Z,22.00
2019-06-01T14:41:59.689Z,22.38
2019-06-01T14:44:01.797Z,22.54
2019-06-01T14:46:03.873Z,22.69
2019-06-01T14:48:06.297Z,22.82
2019-06-01T14:50:08.383Z,22.97
2019-06-01T14:52:10.513Z,22.99
2019-06-01T14:54:12.761Z,22.80
2019-06-01T14:56:15.313Z,22.88
2019-06-01T14:58:17.617Z,22.94
2019-06-01T15:00:20.677Z,23.09
2019-06-01T15:02:22.944Z,23.13
2019-06-01T15:04:25.441Z,23.08
2019-06-01T15:06:27.552Z,22.98
2019-06-01T15:08:29.643Z,23.16
2019-06-01T15:10:32.011Z,23.19
2019-06-01T15:12:33.602Z,23.12
2019-06-01T15:14:35.711Z,23.05
2019-06-01T15:16:37.802Z,22.99
2019-06-01T15:18:40.277Z,23.11
2019-06-01T15:20:42.590Z,23.35
2019-06-01T15:22:44.970Z,23.23
2019-06-01T15:24:46.920Z,23.14
2019-06-01T15:26:50.443Z,23.21
2019-06-01T15:28:53.126Z,23.34
2019-06-01T15:30:57.029Z,23.32
2019-06-01T15:32:59.385Z,23.32
2019-06-01T15:35:03.318Z,23.50
2019-06-01T15:37:05.790Z,23.36
2019-06-01T15:39:23.542Z,23.29
2019-06-01T15:41:12.282Z,23.28
2019-06-01T15:43:14.353Z,23.24
2019-06-01T15:45:17.043Z,23.20
2019-06-01T15:47:19.092Z,23.05
2019-06-01T15:49:21.551Z,23.27
2019-06-01T15:51:23.147Z,23.26
2019-06-01T15:53:25.168Z,23.37
2019-06-01T15:55:27.205Z,23.44
2019-06-01T15:57:29.266Z,23.49
2019-06-01T15:59:31.355Z,23.50
2019-06-01T16:01:33.498Z,23.36
2019-06-01T16:03:35.730Z,23.10
2019-06-01T16:05:37.786Z,23.03
2019-06-01T16:07:40.078Z,23.18
2019-06-01T16:09:43.436Z,23.12
2019-06-01T16:11:45.697Z,23.06
2019-06-01T16:13:47.929Z,23.12
2019-06-01T16:15:50.234Z,22.99
2019-06-01T16:17:53.690Z,23.13
2019-06-01T16:19:55.965Z,23.34
2019-06-01T16:22:00.243Z,23.28
2019-06-01T16:24:02.466Z,23.48
2019-06-01T16:26:15.477Z,23.73
2019-06-01T16:28:08.553Z,23.71
2019-06-01T16:30:11.410Z,23.68
2019-06-01T16:32:13.733Z,23.44
2019-06-01T16:34:15.860Z,23.39
2019-06-01T16:36:17.892Z,23.33
2019-06-01T16:38:20.240Z,23.26
2019-06-01T16:40:22.369Z,23.31
2019-06-01T16:42:24.403Z,23.32
2019-06-01T16:44:26.736Z,23.28
2019-06-01T16:46:28.866Z,23.34
2019-06-01T16:48:30.925Z,23.32
2019-06-01T16:50:33.420Z,23.09
2019-06-01T16:52:35.567Z,23.07
2019-06-01T16:54:37.619Z,23.14
2019-06-01T16:56:40.033Z,23.12
2019-06-01T16:58:42.084Z,23.14
2019-06-01T17:00:44.326Z,23.07
2019-06-01T17:02:46.624Z,22.93
2019-06-01T17:04:48.670Z,23.07
2019-06-01T17:06:50.739Z,23.13
2019-06-01T17:08:53.122Z,23.16
2019-06-01T17:10:56.605Z,23.07
2019-06-01T17:13:00.251Z,22.88
2019-06-01T17:15:03.366Z,22.92
2019-06-01T17:17:07.457Z,22.87
2019-06-01T17:19:09.721Z,22.93
2019-06-01T17:21:11.935Z,22.91
2019-06-01T17:23:26.804Z,22.82
2019-06-01T17:25:18.095Z,22.80
2019-06-01T17:27:20.593Z,22.98
2019-06-01T17:29:23.230Z,22.96
2019-06-01T17:31:25.178Z,22.95
2019-06-01T17:33:27.385Z,22.84
2019-06-01T17:35:29.476Z,22.85
2019-06-01T17:37:32.194Z,22.60
2019-06-01T17:39:34.694Z,22.56
2019-06-01T17:41:36.780Z,22.63
2019-06-01T17:43:38.869Z,22.47
2019-06-01T17:45:41.600Z,22.41
2019-06-01T17:47:43.600Z,22.34
2019-06-01T17:49:45.654Z,22.41
2019-06-01T17:51:47.899Z,22.49
2019-06-01T17:53:53.138Z,22.49
2019-06-01T17:55:54.174Z,22.49
2019-06-01T17:57:56.720Z,22.35
2019-06-01T17:59:58.572Z,22.38
2019-06-01T18:02:01.783Z,22.40
2019-06-01T18:04:05.920Z,22.44
2019-06-01T18:06:09.932Z,22.58
2019-06-01T18:08:13.640Z,22.57
2019-06-01T18:10:16.172Z,22.51
2019-06-01T18:12:18.279Z,22.49
2019-06-01T18:14:20.600Z,22.44
2019-06-01T18:16:22.731Z,22.51
2019-06-01T18:18:24.798Z,22.50
2019-06-01T18:20:27.032Z,22.49
2019-06-01T18:22:29.574Z,22.47
2019-06-01T18:24:31.712Z,22.49
2019-06-01T18:26:33.797Z,22.49
2019-06-01T18:28:36.160Z,22.43
2019-06-01T18:30:38.555Z,22.30
2019-06-01T18:32:40.995Z,22.28
2019-06-01T18:34:43.045Z,22.28
2019-06-01T18:36:45.256Z,22.29
2019-06-01T18:38:47.670Z,22.27
2019-06-01T18:40:49.790Z,22.18
2019-06-01T18:42:57.236Z,22.17
2019-06-01T18:45:01.037Z,22.17
2019-06-01T18:47:03.793Z,22.22
2019-06-01T18:49:06.205Z,22.28
2019-06-01T18:51:10.112Z,22.28
2019-06-01T18:53:14.165Z,22.29
2019-06-01T18:55:16.732Z,22.28
2019-06-01T18:57:21.402Z,22.30
2019-06-01T18:59:23.835Z,22.25
2019-06-01T19:01:26.845Z,22.19
2019-06-01T19:03:29.035Z,22.25
2019-06-01T19:05:31.518Z,22.21
2019-06-01T19:07:33.847Z,22.11
2019-06-01T19:09:36.597Z,22.11
2019-06-01T19:11:40.512Z,22.11
2019-06-01T19:13:44.690Z,22.06
2019-06-01T19:15:46.914Z,22.05
2019-06-01T19:17:49.210Z,22.05
2019-06-01T19:19:51.447Z,22.02
2019-06-01T19:21:54.326Z,21.98
2019-06-01T19:23:56.809Z,21.94
2019-06-01T19:25:58.966Z,21.93
2019-06-01T19:28:01.022Z,21.87
2019-06-01T19:30:04.999Z,21.86
2019-06-01T19:32:08.699Z,21.86
2019-06-01T19:34:11.521Z,21.86
2019-06-01T19:36:13.704Z,21.90
2019-06-01T19:38:20.415Z,21.92
2019-06-01T19:40:27.435Z,21.85
2019-06-01T19:42:29.960Z,21.78
2019-06-01T19:44:32.374Z,21.74
2019-06-01T19:46:34.833Z,21.73
2019-06-01T19:48:38.289Z,21.66
2019-06-01T19:50:41.606Z,21.66
2019-06-01T19:52:43.762Z,21.64
2019-06-01T19:54:45.981Z,21.67
2019-06-01T19:56:48.425Z,21.70
2019-06-01T19:58:50.173Z,21.64
2019-06-01T20:00:52.401Z,21.60
2019-06-01T20:02:54.479Z,21.56
2019-06-01T20:04:56.529Z,21.50
2019-06-01T20:06:59.525Z,21.44
2019-06-01T20:09:01.571Z,21.42
2019-06-01T20:11:05.575Z,21.41
2019-06-01T20:13:08.333Z,21.38
2019-06-01T20:15:11.474Z,21.38
2019-06-01T20:17:17.832Z,21.38
2019-06-01T20:19:20.261Z,21.28
2019-06-01T20:21:23.926Z,21.24
2019-06-01T20:23:26.582Z,21.18
2019-06-01T20:25:30.742Z,21.20
2019-06-01T20:27:34.960Z,21.21
2019-06-01T20:29:38.008Z,21.21
2019-06-01T20:33:42.804Z,21.20
2019-06-01T20:35:44.682Z,21.18
2019-06-01T20:37:46.752Z,21.16
2019-06-01T20:39:48.824Z,21.13
2019-06-01T20:41:51.406Z,21.12
2019-06-01T20:43:55.000Z,21.11
2019-06-01T20:45:57.252Z,21.10
2019-06-01T20:48:00.943Z,21.08
2019-06-01T20:50:04.192Z,21.05
2019-06-01T20:52:06.716Z,21.04
2019-06-01T20:54:09.788Z,21.01
2019-06-01T20:56:13.329Z,20.96
2019-06-01T20:58:16.235Z,20.93
2019-06-01T21:00:21.739Z,20.93
2019-06-01T21:02:25.035Z,20.89
2019-06-01T21:04:27.307Z,20.92
2019-06-01T21:06:29.802Z,20.90
2019-06-01T21:08:32.034Z,20.92
2019-06-01T21:10:34.212Z,20.88
2019-06-01T21:12:44.877Z,20.86
2019-06-01T21:14:41.190Z,20.79
2019-06-01T21:16:43.673Z,20.77
2019-06-01T21:18:45.790Z,20.81
2019-06-01T21:20:48.432Z,20.80
2019-06-01T21:22:50.868Z,20.77
2019-06-01T21:24:54.110Z,20.73
2019-06-01T21:26:56.565Z,20.74
2019-06-01T21:28:58.274Z,20.69
2019-06-01T21:31:00.708Z,20.70
2019-06-01T21:33:03.979Z,20.68
2019-06-01T21:35:06.581Z,20.69
2019-06-01T21:37:09.092Z,20.66
2019-06-01T21:39:11.499Z,20.66
2019-06-01T21:41:13.869Z,20.64
2019-06-01T21:44:31.710Z,20.65
2019-06-01T21:46:33.861Z,20.60
2019-06-01T21:48:36.014Z,20.59
2019-06-01T21:50:38.898Z,20.52
2019-06-01T21:52:41.095Z,20.49
2019-06-01T21:54:43.409Z,20.50
2019-06-01T21:56:46.199Z,20.53
2019-06-01T21:58:48.607Z,20.48
2019-06-01T22:00:50.358Z,20.47
2019-06-01T22:02:54.860Z,20.45
2019-06-01T22:04:57.091Z,20.45
2019-06-01T22:06:59.797Z,20.43
2019-06-01T22:09:01.682Z,20.40
2019-06-01T22:11:05.983Z,20.40
2019-06-01T22:13:18.278Z,20.39
2019-06-01T22:15:12.089Z,20.38
2019-06-01T22:17:14.116Z,20.37
2019-06-01T22:19:17.465Z,20.38
2019-06-01T22:21:20.084Z,20.39
2019-06-01T22:23:22.003Z,20.34
2019-06-01T22:25:24.079Z,20.36
2019-06-01T22:27:26.478Z,20.34
2019-06-01T22:29:28.585Z,20.37
2019-06-01T22:31:30.881Z,20.36
2019-06-01T22:33:33.451Z,20.36
2019-06-01T22:35:35.612Z,20.41
2019-06-01T22:37:37.673Z,20.38
2019-06-01T22:39:40.076Z,20.30
2019-06-01T22:41:42.496Z,20.30
2019-06-01T22:43:47.121Z,20.32
2019-06-01T22:45:49.678Z,20.30
2019-06-01T22:47:51.525Z,20.26
2019-06-01T22:49:53.635Z,20.24
2019-06-01T22:51:56.043Z,20.22
2019-06-01T22:53:58.098Z,20.26
2019-06-01T22:56:00.172Z,20.18
2019-06-01T22:58:02.268Z,20.22
2019-06-01T23:00:04.892Z,20.20
2019-06-01T23:02:07.218Z,20.16
2019-06-01T23:04:09.290Z,20.17
2019-06-01T23:06:11.594Z,20.10
2019-06-01T23:08:13.558Z,20.09
2019-06-01T23:10:16.023Z,20.11
2019-06-01T23:12:17.950Z,20.13
2019-06-01T23:14:21.260Z,20.09
2019-06-01T23:16:23.743Z,20.07
2019-06-01T23:18:25.879Z,20.03
2019-06-01T23:20:28.013Z,19.99
2019-06-01T23:22:30.552Z,20.03
2019-06-01T23:24:32.632Z,20.00
2019-06-01T23:26:34.706Z,19.98
2019-06-01T23:28:38.777Z,19.97
2019-06-01T23:30:41.686Z,19.94
2019-06-01T23:32:43.752Z,19.94
2019-06-01T23:34:46.309Z,19.87
2019-06-01T23:36:49.355Z,19.87
2019-06-01T23:38:51.416Z,19.83
2019-06-01T23:40:53.806Z,19.81
2019-06-01T23:42:55.425Z,19.79
2019-06-01T23:44:57.495Z,19.79
2019-06-01T23:46:59.705Z,19.80
2019-06-01T23:49:01.757Z,19.80
2019-06-01T23:51:03.780Z,19.87
2019-06-01T23:53:13.791Z,19.81
2019-06-01T23:55:10.167Z,19.76
2019-06-01T23:57:12.809Z,19.76
2019-06-01T23:59:14.852Z,19.74
